Terminal Aerodrome Forecast
Issued by NWS

Home | Current Version | Previous Version | Text Only | Print | Product List | Glossary On
Versions: 1 2 3 4 5 6 7 8 9 10 11 12 13
231
FTUS45 KVEF 261120
TAFHND
TAF
KHND 261120Z 2612/2712 20008KT P6SM FEW120
     FM261700 VRB05KT P6SM FEW120
     FM262100 25011KT P6SM VCSH SCT100
     FM270300 21009KT P6SM FEW120=

USA.gov is the U.S. government's official web portal to all federal, state and local government web resources and services.